sensor_id;sensor_type;location;lat;lon;timestamp;temperature;humidity
76172;DHT22;64929;51.178;4.138;2023-04-07T00:01:42;11.00;88.50
76172;DHT22;64929;51.178;4.138;2023-04-07T00:04:08;11.00;88.00
76172;DHT22;64929;51.178;4.138;2023-04-07T00:06:34;10.90;88.10
76172;DHT22;64929;51.178;4.138;2023-04-07T00:09:00;10.90;87.90
76172;DHT22;64929;51.178;4.138;2023-04-07T00:11:25;11.00;87.20
76172;DHT22;64929;51.178;4.138;2023-04-07T00:13:51;10.70;88.10
76172;DHT22;64929;51.178;4.138;2023-04-07T00:16:17;10.90;87.90
76172;DHT22;64929;51.178;4.138;2023-04-07T00:18:42;10.70;88.10
76172;DHT22;64929;51.178;4.138;2023-04-07T00:21:08;10.60;88.40
76172;DHT22;64929;51.178;4.138;2023-04-07T00:23:33;10.50;88.70
76172;DHT22;64929;51.178;4.138;2023-04-07T00:25:59;10.40;89.70
76172;DHT22;64929;51.178;4.138;2023-04-07T00:28:25;10.50;89.70
76172;DHT22;64929;51.178;4.138;2023-04-07T00:30:51;10.50;89.10
76172;DHT22;64929;51.178;4.138;2023-04-07T00:33:16;10.40;89.40
76172;DHT22;64929;51.178;4.138;2023-04-07T00:35:42;10.40;89.90
76172;DHT22;64929;51.178;4.138;2023-04-07T00:38:07;10.20;90.20
76172;DHT22;64929;51.178;4.138;2023-04-07T00:40:33;10.20;90.50
76172;DHT22;64929;51.178;4.138;2023-04-07T00:42:58;10.20;90.70
76172;DHT22;64929;51.178;4.138;2023-04-07T00:45:24;10.20;90.30
76172;DHT22;64929;51.178;4.138;2023-04-07T00:47:50;10.40;90.10
76172;DHT22;64929;51.178;4.138;2023-04-07T00:50:16;10.50;89.60
76172;DHT22;64929;51.178;4.138;2023-04-07T00:52:42;10.60;89.00
76172;DHT22;64929;51.178;4.138;2023-04-07T00:55:09;10.40;89.50
76172;DHT22;64929;51.178;4.138;2023-04-07T00:57:35;10.40;89.50
76172;DHT22;64929;51.178;4.138;2023-04-07T01:00:00;10.30;90.20
76172;DHT22;64929;51.178;4.138;2023-04-07T01:02:35;10.30;90.30
76172;DHT22;64929;51.178;4.138;2023-04-07T01:05:09;10.40;90.00
76172;DHT22;64929;51.178;4.138;2023-04-07T01:10:12;10.40;90.00
76172;DHT22;64929;51.178;4.138;2023-04-07T01:15:11;10.30;90.00
76172;DHT22;64929;51.178;4.138;2023-04-07T01:17:38;10.20;89.90
76172;DHT22;64929;51.178;4.138;2023-04-07T01:20:05;10.10;90.20
76172;DHT22;64929;51.178;4.138;2023-04-07T01:23:08;10.10;90.40
76172;DHT22;64929;51.178;4.138;2023-04-07T01:25:34;10.00;89.90
76172;DHT22;64929;51.178;4.138;2023-04-07T01:30:30;9.70;90.90
76172;DHT22;64929;51.178;4.138;2023-04-07T01:32:57;9.80;91.00
76172;DHT22;64929;51.178;4.138;2023-04-07T01:35:23;9.90;90.70
76172;DHT22;64929;51.178;4.138;2023-04-07T01:37:49;9.80;90.70
76172;DHT22;64929;51.178;4.138;2023-04-07T01:40:15;9.90;90.70
76172;DHT22;64929;51.178;4.138;2023-04-07T01:42:40;10.00;90.50
76172;DHT22;64929;51.178;4.138;2023-04-07T01:45:07;10.10;90.00
76172;DHT22;64929;51.178;4.138;2023-04-07T01:47:33;9.90;90.20
76172;DHT22;64929;51.178;4.138;2023-04-07T01:50:01;10.10;90.40
76172;DHT22;64929;51.178;4.138;2023-04-07T01:52:31;10.10;89.90
76172;DHT22;64929;51.178;4.138;2023-04-07T01:54:57;10.00;90.30
76172;DHT22;64929;51.178;4.138;2023-04-07T01:57:22;10.00;90.40
76172;DHT22;64929;51.178;4.138;2023-04-07T01:59:48;10.00;90.20
76172;DHT22;64929;51.178;4.138;2023-04-07T02:02:13;9.90;90.30
76172;DHT22;64929;51.178;4.138;2023-04-07T02:04:42;9.90;90.40
76172;DHT22;64929;51.178;4.138;2023-04-07T02:07:11;9.70;90.80
76172;DHT22;64929;51.178;4.138;2023-04-07T02:09:39;9.80;90.60
76172;DHT22;64929;51.178;4.138;2023-04-07T02:12:06;9.80;90.70
76172;DHT22;64929;51.178;4.138;2023-04-07T02:14:33;9.70;90.90
76172;DHT22;64929;51.178;4.138;2023-04-07T02:17:00;9.70;91.00
76172;DHT22;64929;51.178;4.138;2023-04-07T02:19:26;9.80;90.70
76172;DHT22;64929;51.178;4.138;2023-04-07T02:21:52;9.90;90.70
76172;DHT22;64929;51.178;4.138;2023-04-07T02:24:18;9.80;90.70
76172;DHT22;64929;51.178;4.138;2023-04-07T02:26:45;9.80;90.60
76172;DHT22;64929;51.178;4.138;2023-04-07T02:29:12;9.80;90.70
76172;DHT22;64929;51.178;4.138;2023-04-07T02:31:37;9.70;90.90
76172;DHT22;64929;51.178;4.138;2023-04-07T02:34:03;9.90;90.50
76172;DHT22;64929;51.178;4.138;2023-04-07T02:36:28;10.00;90.20
76172;DHT22;64929;51.178;4.138;2023-04-07T02:38:55;10.10;89.80
76172;DHT22;64929;51.178;4.138;2023-04-07T02:41:21;10.00;90.10
76172;DHT22;64929;51.178;4.138;2023-04-07T02:43:46;9.90;90.20
76172;DHT22;64929;51.178;4.138;2023-04-07T02:46:12;10.30;89.10
76172;DHT22;64929;51.178;4.138;2023-04-07T02:48:38;9.90;89.80
76172;DHT22;64929;51.178;4.138;2023-04-07T02:51:03;9.70;90.60
76172;DHT22;64929;51.178;4.138;2023-04-07T02:53:29;9.70;90.70
76172;DHT22;64929;51.178;4.138;2023-04-07T02:55:54;9.80;90.80
76172;DHT22;64929;51.178;4.138;2023-04-07T02:58:20;9.90;90.20
76172;DHT22;64929;51.178;4.138;2023-04-07T03:00:46;9.80;90.60
76172;DHT22;64929;51.178;4.138;2023-04-07T03:03:12;9.70;90.70
76172;DHT22;64929;51.178;4.138;2023-04-07T03:05:37;9.70;90.80
76172;DHT22;64929;51.178;4.138;2023-04-07T03:08:03;9.90;90.40
76172;DHT22;64929;51.178;4.138;2023-04-07T03:10:29;10.00;90.10
76172;DHT22;64929;51.178;4.138;2023-04-07T03:12:54;10.20;89.00
76172;DHT22;64929;51.178;4.138;2023-04-07T03:15:20;10.10;88.90
76172;DHT22;64929;51.178;4.138;2023-04-07T03:17:45;9.90;90.00
76172;DHT22;64929;51.178;4.138;2023-04-07T03:20:11;9.90;90.10
76172;DHT22;64929;51.178;4.138;2023-04-07T03:22:37;9.80;90.40
76172;DHT22;64929;51.178;4.138;2023-04-07T03:25:03;9.90;90.00
76172;DHT22;64929;51.178;4.138;2023-04-07T03:27:28;9.70;90.50
76172;DHT22;64929;51.178;4.138;2023-04-07T03:29:54;9.80;90.20
76172;DHT22;64929;51.178;4.138;2023-04-07T03:32:20;9.80;90.20
76172;DHT22;64929;51.178;4.138;2023-04-07T03:34:45;9.70;90.30
76172;DHT22;64929;51.178;4.138;2023-04-07T03:37:11;9.60;90.60
76172;DHT22;64929;51.178;4.138;2023-04-07T03:39:36;9.80;90.10
76172;DHT22;64929;51.178;4.138;2023-04-07T03:42:03;9.60;90.50
76172;DHT22;64929;51.178;4.138;2023-04-07T03:44:29;9.40;90.60
76172;DHT22;64929;51.178;4.138;2023-04-07T03:46:54;9.40;90.90
76172;DHT22;64929;51.178;4.138;2023-04-07T03:49:20;9.40;90.90
76172;DHT22;64929;51.178;4.138;2023-04-07T03:51:46;9.30;90.90
76172;DHT22;64929;51.178;4.138;2023-04-07T03:54:14;9.40;90.70
76172;DHT22;64929;51.178;4.138;2023-04-07T03:56:40;9.40;90.70
76172;DHT22;64929;51.178;4.138;2023-04-07T03:59:05;9.50;90.30
76172;DHT22;64929;51.178;4.138;2023-04-07T04:01:39;9.60;89.90
76172;DHT22;64929;51.178;4.138;2023-04-07T04:04:05;9.50;89.40
76172;DHT22;64929;51.178;4.138;2023-04-07T04:06:30;9.50;89.60
76172;DHT22;64929;51.178;4.138;2023-04-07T04:08:56;9.40;89.80
76172;DHT22;64929;51.178;4.138;2023-04-07T04:11:22;9.40;89.60
76172;DHT22;64929;51.178;4.138;2023-04-07T04:13:48;9.40;89.50
76172;DHT22;64929;51.178;4.138;2023-04-07T04:16:13;9.40;88.80
76172;DHT22;64929;51.178;4.138;2023-04-07T04:18:39;9.40;88.90
76172;DHT22;64929;51.178;4.138;2023-04-07T04:21:04;9.30;88.50
76172;DHT22;64929;51.178;4.138;2023-04-07T04:23:30;9.20;89.90
76172;DHT22;64929;51.178;4.138;2023-04-07T04:25:56;9.20;89.80
76172;DHT22;64929;51.178;4.138;2023-04-07T04:28:24;9.10;89.00
76172;DHT22;64929;51.178;4.138;2023-04-07T04:30:49;9.10;88.50
76172;DHT22;64929;51.178;4.138;2023-04-07T04:33:15;9.10;88.60
76172;DHT22;64929;51.178;4.138;2023-04-07T04:35:41;9.00;88.90
76172;DHT22;64929;51.178;4.138;2023-04-07T04:38:06;9.00;89.10
76172;DHT22;64929;51.178;4.138;2023-04-07T04:40:32;8.90;88.80
76172;DHT22;64929;51.178;4.138;2023-04-07T04:42:57;8.80;88.80
76172;DHT22;64929;51.178;4.138;2023-04-07T04:45:23;9.00;88.20
76172;DHT22;64929;51.178;4.138;2023-04-07T04:47:48;9.00;88.40
76172;DHT22;64929;51.178;4.138;2023-04-07T04:50:14;8.90;89.30
76172;DHT22;64929;51.178;4.138;2023-04-07T04:52:40;9.10;88.40
76172;DHT22;64929;51.178;4.138;2023-04-07T04:55:05;9.10;88.40
76172;DHT22;64929;51.178;4.138;2023-04-07T04:57:31;9.20;88.10
76172;DHT22;64929;51.178;4.138;2023-04-07T04:59:58;9.10;89.10
76172;DHT22;64929;51.178;4.138;2023-04-07T05:02:24;9.10;88.80
76172;DHT22;64929;51.178;4.138;2023-04-07T05:04:50;9.10;89.30
76172;DHT22;64929;51.178;4.138;2023-04-07T05:07:16;9.30;88.40
76172;DHT22;64929;51.178;4.138;2023-04-07T05:09:41;9.30;88.50
76172;DHT22;64929;51.178;4.138;2023-04-07T05:12:07;9.30;88.20
76172;DHT22;64929;51.178;4.138;2023-04-07T05:14:32;9.40;87.40
76172;DHT22;64929;51.178;4.138;2023-04-07T05:16:58;9.40;87.20
76172;DHT22;64929;51.178;4.138;2023-04-07T05:19:25;9.20;87.70
76172;DHT22;64929;51.178;4.138;2023-04-07T05:21:51;9.20;87.80
76172;DHT22;64929;51.178;4.138;2023-04-07T05:24:17;9.10;88.70
76172;DHT22;64929;51.178;4.138;2023-04-07T05:26:42;9.10;88.30
76172;DHT22;64929;51.178;4.138;2023-04-07T05:29:08;9.00;88.20
76172;DHT22;64929;51.178;4.138;2023-04-07T05:31:33;9.10;88.20
76172;DHT22;64929;51.178;4.138;2023-04-07T05:34:01;9.20;87.70
76172;DHT22;64929;51.178;4.138;2023-04-07T05:36:27;9.20;87.20
76172;DHT22;64929;51.178;4.138;2023-04-07T05:38:52;9.10;87.80
76172;DHT22;64929;51.178;4.138;2023-04-07T05:41:18;9.20;87.10
76172;DHT22;64929;51.178;4.138;2023-04-07T05:43:43;9.30;86.60
76172;DHT22;64929;51.178;4.138;2023-04-07T05:46:09;9.30;86.90
76172;DHT22;64929;51.178;4.138;2023-04-07T05:48:34;9.00;88.50
76172;DHT22;64929;51.178;4.138;2023-04-07T05:51:00;9.10;88.80
76172;DHT22;64929;51.178;4.138;2023-04-07T05:53:26;9.30;88.10
76172;DHT22;64929;51.178;4.138;2023-04-07T05:55:51;9.40;87.80
76172;DHT22;64929;51.178;4.138;2023-04-07T05:58:17;9.30;88.40
76172;DHT22;64929;51.178;4.138;2023-04-07T06:00:43;9.50;87.10
76172;DHT22;64929;51.178;4.138;2023-04-07T06:03:08;9.50;87.30
76172;DHT22;64929;51.178;4.138;2023-04-07T06:05:34;9.60;87.40
76172;DHT22;64929;51.178;4.138;2023-04-07T06:07:59;9.60;87.80
76172;DHT22;64929;51.178;4.138;2023-04-07T06:10:25;9.60;87.80
76172;DHT22;64929;51.178;4.138;2023-04-07T06:12:50;9.80;86.60
76172;DHT22;64929;51.178;4.138;2023-04-07T06:15:16;9.50;87.80
76172;DHT22;64929;51.178;4.138;2023-04-07T06:17:42;9.50;88.40
76172;DHT22;64929;51.178;4.138;2023-04-07T06:20:10;9.40;88.80
76172;DHT22;64929;51.178;4.138;2023-04-07T06:22:35;9.30;90.20
76172;DHT22;64929;51.178;4.138;2023-04-07T06:25:01;9.30;90.30
76172;DHT22;64929;51.178;4.138;2023-04-07T06:27:27;9.30;90.30
76172;DHT22;64929;51.178;4.138;2023-04-07T06:29:52;9.50;90.10
76172;DHT22;64929;51.178;4.138;2023-04-07T06:32:18;9.50;90.00
76172;DHT22;64929;51.178;4.138;2023-04-07T06:34:44;9.50;90.30
76172;DHT22;64929;51.178;4.138;2023-04-07T06:37:10;9.40;90.70
76172;DHT22;64929;51.178;4.138;2023-04-07T06:39:35;9.60;90.30
76172;DHT22;64929;51.178;4.138;2023-04-07T06:42:02;9.80;90.20
76172;DHT22;64929;51.178;4.138;2023-04-07T06:44:28;9.80;90.00
76172;DHT22;64929;51.178;4.138;2023-04-07T06:46:53;9.90;89.80
76172;DHT22;64929;51.178;4.138;2023-04-07T06:49:19;9.80;90.10
76172;DHT22;64929;51.178;4.138;2023-04-07T06:51:45;10.00;89.80
76172;DHT22;64929;51.178;4.138;2023-04-07T06:54:11;10.20;88.90
76172;DHT22;64929;51.178;4.138;2023-04-07T06:56:43;10.30;88.90
76172;DHT22;64929;51.178;4.138;2023-04-07T06:59:08;10.40;88.30
76172;DHT22;64929;51.178;4.138;2023-04-07T07:01:34;10.30;88.40
76172;DHT22;64929;51.178;4.138;2023-04-07T07:04:02;10.30;87.80
76172;DHT22;64929;51.178;4.138;2023-04-07T07:06:27;10.30;87.50
76172;DHT22;64929;51.178;4.138;2023-04-07T07:08:53;10.50;87.00
76172;DHT22;64929;51.178;4.138;2023-04-07T07:11:19;10.50;87.30
76172;DHT22;64929;51.178;4.138;2023-04-07T07:13:45;10.50;86.70
76172;DHT22;64929;51.178;4.138;2023-04-07T07:16:14;10.50;87.10
76172;DHT22;64929;51.178;4.138;2023-04-07T07:18:39;10.50;86.20
76172;DHT22;64929;51.178;4.138;2023-04-07T07:21:05;10.60;85.50
76172;DHT22;64929;51.178;4.138;2023-04-07T07:23:30;10.60;85.60
76172;DHT22;64929;51.178;4.138;2023-04-07T07:25:56;10.40;87.10
76172;DHT22;64929;51.178;4.138;2023-04-07T07:28:22;10.50;86.80
76172;DHT22;64929;51.178;4.138;2023-04-07T07:30:48;10.40;86.60
76172;DHT22;64929;51.178;4.138;2023-04-07T07:33:13;10.40;86.60
76172;DHT22;64929;51.178;4.138;2023-04-07T07:35:39;10.50;87.60
76172;DHT22;64929;51.178;4.138;2023-04-07T07:38:05;10.40;87.10
76172;DHT22;64929;51.178;4.138;2023-04-07T07:40:31;10.50;86.50
76172;DHT22;64929;51.178;4.138;2023-04-07T07:42:57;10.60;86.50
76172;DHT22;64929;51.178;4.138;2023-04-07T07:45:22;10.70;85.50
76172;DHT22;64929;51.178;4.138;2023-04-07T07:47:48;10.70;85.60
76172;DHT22;64929;51.178;4.138;2023-04-07T07:50:14;10.60;85.90
76172;DHT22;64929;51.178;4.138;2023-04-07T07:52:39;10.40;86.20
76172;DHT22;64929;51.178;4.138;2023-04-07T07:55:06;10.40;87.40
76172;DHT22;64929;51.178;4.138;2023-04-07T07:57:31;10.40;87.30
76172;DHT22;64929;51.178;4.138;2023-04-07T07:59:57;10.70;86.40
76172;DHT22;64929;51.178;4.138;2023-04-07T08:02:22;10.80;85.80
76172;DHT22;64929;51.178;4.138;2023-04-07T08:04:53;10.90;85.10
76172;DHT22;64929;51.178;4.138;2023-04-07T08:07:19;11.10;83.90
76172;DHT22;64929;51.178;4.138;2023-04-07T08:09:46;11.00;83.00
76172;DHT22;64929;51.178;4.138;2023-04-07T08:12:11;11.20;84.20
76172;DHT22;64929;51.178;4.138;2023-04-07T08:14:37;11.30;82.40
76172;DHT22;64929;51.178;4.138;2023-04-07T08:17:02;11.30;83.30
76172;DHT22;64929;51.178;4.138;2023-04-07T08:19:28;11.30;82.80
76172;DHT22;64929;51.178;4.138;2023-04-07T08:21:53;11.40;82.30
76172;DHT22;64929;51.178;4.138;2023-04-07T08:24:19;11.60;82.20
76172;DHT22;64929;51.178;4.138;2023-04-07T08:26:45;11.70;82.10
76172;DHT22;64929;51.178;4.138;2023-04-07T08:29:11;11.80;80.20
76172;DHT22;64929;51.178;4.138;2023-04-07T08:31:36;11.90;78.70
76172;DHT22;64929;51.178;4.138;2023-04-07T08:34:02;11.80;80.70
76172;DHT22;64929;51.178;4.138;2023-04-07T08:36:27;11.90;81.00
76172;DHT22;64929;51.178;4.138;2023-04-07T08:38:54;12.00;81.90
76172;DHT22;64929;51.178;4.138;2023-04-07T08:41:32;12.30;78.80
76172;DHT22;64929;51.178;4.138;2023-04-07T08:44:00;12.30;78.80
76172;DHT22;64929;51.178;4.138;2023-04-07T08:46:27;12.10;78.10
76172;DHT22;64929;51.178;4.138;2023-04-07T08:48:54;12.10;79.90
76172;DHT22;64929;51.178;4.138;2023-04-07T08:51:29;12.40;78.00
76172;DHT22;64929;51.178;4.138;2023-04-07T08:54:11;12.30;79.10
76172;DHT22;64929;51.178;4.138;2023-04-07T08:56:38;12.50;77.80
76172;DHT22;64929;51.178;4.138;2023-04-07T08:59:05;12.70;77.40
76172;DHT22;64929;51.178;4.138;2023-04-07T09:01:32;12.60;76.60
76172;DHT22;64929;51.178;4.138;2023-04-07T09:03:58;12.70;76.00
76172;DHT22;64929;51.178;4.138;2023-04-07T09:06:24;12.30;79.70
76172;DHT22;64929;51.178;4.138;2023-04-07T09:08:51;11.90;82.10
76172;DHT22;64929;51.178;4.138;2023-04-07T09:11:17;11.80;83.00
76172;DHT22;64929;51.178;4.138;2023-04-07T09:13:42;11.70;83.80
76172;DHT22;64929;51.178;4.138;2023-04-07T09:16:08;11.50;84.00
76172;DHT22;64929;51.178;4.138;2023-04-07T09:18:33;11.40;86.30
76172;DHT22;64929;51.178;4.138;2023-04-07T09:21:00;11.60;85.20
76172;DHT22;64929;51.178;4.138;2023-04-07T09:23:33;11.80;85.40
76172;DHT22;64929;51.178;4.138;2023-04-07T09:25:59;11.90;85.50
76172;DHT22;64929;51.178;4.138;2023-04-07T09:28:36;12.00;83.50
76172;DHT22;64929;51.178;4.138;2023-04-07T09:31:04;12.00;84.10
76172;DHT22;64929;51.178;4.138;2023-04-07T09:33:30;11.90;83.50
76172;DHT22;64929;51.178;4.138;2023-04-07T09:35:55;11.80;83.60
76172;DHT22;64929;51.178;4.138;2023-04-07T09:38:21;11.50;83.70
76172;DHT22;64929;51.178;4.138;2023-04-07T09:40:46;11.70;83.50
76172;DHT22;64929;51.178;4.138;2023-04-07T09:43:16;11.70;83.50
76172;DHT22;64929;51.178;4.138;2023-04-07T09:45:42;11.90;82.90
76172;DHT22;64929;51.178;4.138;2023-04-07T09:48:08;12.10;82.70
76172;DHT22;64929;51.178;4.138;2023-04-07T09:50:42;11.90;82.70
76172;DHT22;64929;51.178;4.138;2023-04-07T09:53:10;11.90;81.30
76172;DHT22;64929;51.178;4.138;2023-04-07T09:55:35;11.80;81.50
76172;DHT22;64929;51.178;4.138;2023-04-07T09:58:02;11.60;81.70
76172;DHT22;64929;51.178;4.138;2023-04-07T10:00:28;11.60;82.70
76172;DHT22;64929;51.178;4.138;2023-04-07T10:02:54;11.70;82.30
76172;DHT22;64929;51.178;4.138;2023-04-07T10:05:20;11.80;81.10
76172;DHT22;64929;51.178;4.138;2023-04-07T10:07:46;12.00;81.30
76172;DHT22;64929;51.178;4.138;2023-04-07T10:10:12;11.80;80.90
76172;DHT22;64929;51.178;4.138;2023-04-07T10:12:38;11.90;81.40
76172;DHT22;64929;51.178;4.138;2023-04-07T10:15:05;12.10;81.30
76172;DHT22;64929;51.178;4.138;2023-04-07T10:17:31;12.20;80.60
76172;DHT22;64929;51.178;4.138;2023-04-07T10:19:57;12.20;79.70
76172;DHT22;64929;51.178;4.138;2023-04-07T10:22:24;12.30;80.10
76172;DHT22;64929;51.178;4.138;2023-04-07T10:27:16;12.60;79.00
76172;DHT22;64929;51.178;4.138;2023-04-07T10:29:45;12.60;77.10
76172;DHT22;64929;51.178;4.138;2023-04-07T10:32:11;12.60;74.60
76172;DHT22;64929;51.178;4.138;2023-04-07T10:34:55;12.70;76.00
76172;DHT22;64929;51.178;4.138;2023-04-07T10:37:22;12.80;75.50
76172;DHT22;64929;51.178;4.138;2023-04-07T10:39:49;12.60;76.20
76172;DHT22;64929;51.178;4.138;2023-04-07T10:44:59;12.10;78.50
76172;DHT22;64929;51.178;4.138;2023-04-07T10:47:26;12.20;78.50
76172;DHT22;64929;51.178;4.138;2023-04-07T10:53:08;12.70;76.90
76172;DHT22;64929;51.178;4.138;2023-04-07T10:55:36;12.80;76.70
76172;DHT22;64929;51.178;4.138;2023-04-07T11:03:25;12.60;76.70
76172;DHT22;64929;51.178;4.138;2023-04-07T11:05:50;12.80;75.60
76172;DHT22;64929;51.178;4.138;2023-04-07T11:11:12;12.80;76.70
76172;DHT22;64929;51.178;4.138;2023-04-07T11:13:41;12.70;76.70
76172;DHT22;64929;51.178;4.138;2023-04-07T11:16:07;13.00;76.50
76172;DHT22;64929;51.178;4.138;2023-04-07T11:18:33;12.80;75.20
76172;DHT22;64929;51.178;4.138;2023-04-07T11:20:59;12.90;75.20
76172;DHT22;64929;51.178;4.138;2023-04-07T11:23:25;13.10;74.70
76172;DHT22;64929;51.178;4.138;2023-04-07T11:25:52;12.90;75.00
76172;DHT22;64929;51.178;4.138;2023-04-07T11:28:18;12.60;75.80
76172;DHT22;64929;51.178;4.138;2023-04-07T11:30:45;12.60;77.10
76172;DHT22;64929;51.178;4.138;2023-04-07T11:33:15;12.60;77.80
76172;DHT22;64929;51.178;4.138;2023-04-07T11:36:13;12.40;77.70
76172;DHT22;64929;51.178;4.138;2023-04-07T11:38:36;12.30;77.70
76172;DHT22;64929;51.178;4.138;2023-04-07T11:41:10;12.30;77.30
76172;DHT22;64929;51.178;4.138;2023-04-07T11:43:35;12.10;78.50
76172;DHT22;64929;51.178;4.138;2023-04-07T11:48:31;12.10;78.80
76172;DHT22;64929;51.178;4.138;2023-04-07T11:50:57;12.00;79.00
76172;DHT22;64929;51.178;4.138;2023-04-07T11:53:26;12.10;78.90
76172;DHT22;64929;51.178;4.138;2023-04-07T11:56:00;12.20;78.40
76172;DHT22;64929;51.178;4.138;2023-04-07T11:58:25;12.30;78.50
76172;DHT22;64929;51.178;4.138;2023-04-07T12:00:51;12.10;78.70
76172;DHT22;64929;51.178;4.138;2023-04-07T12:03:17;11.90;78.70
76172;DHT22;64929;51.178;4.138;2023-04-07T12:05:43;11.70;78.70
76172;DHT22;64929;51.178;4.138;2023-04-07T12:08:09;11.60;78.90
76172;DHT22;64929;51.178;4.138;2023-04-07T12:10:35;11.50;79.70
76172;DHT22;64929;51.178;4.138;2023-04-07T12:13:00;11.60;79.80
76172;DHT22;64929;51.178;4.138;2023-04-07T12:15:26;11.50;79.30
76172;DHT22;64929;51.178;4.138;2023-04-07T12:17:52;11.50;80.10
76172;DHT22;64929;51.178;4.138;2023-04-07T12:20:19;11.60;79.80
76172;DHT22;64929;51.178;4.138;2023-04-07T12:22:45;11.50;79.70
76172;DHT22;64929;51.178;4.138;2023-04-07T12:25:11;11.80;79.70
76172;DHT22;64929;51.178;4.138;2023-04-07T12:27:37;11.90;78.70
76172;DHT22;64929;51.178;4.138;2023-04-07T12:30:02;12.20;78.90
76172;DHT22;64929;51.178;4.138;2023-04-07T12:32:28;12.70;77.50
76172;DHT22;64929;51.178;4.138;2023-04-07T12:34:54;12.70;75.90
76172;DHT22;64929;51.178;4.138;2023-04-07T12:37:19;13.00;75.90
76172;DHT22;64929;51.178;4.138;2023-04-07T12:39:45;13.30;74.50
76172;DHT22;64929;51.178;4.138;2023-04-07T12:42:10;13.30;73.50
76172;DHT22;64929;51.178;4.138;2023-04-07T12:44:36;13.20;74.70
76172;DHT22;64929;51.178;4.138;2023-04-07T12:47:02;13.00;73.40
76172;DHT22;64929;51.178;4.138;2023-04-07T12:49:28;12.70;74.40
76172;DHT22;64929;51.178;4.138;2023-04-07T12:51:53;12.50;74.40
76172;DHT22;64929;51.178;4.138;2023-04-07T12:54:20;12.30;75.30
76172;DHT22;64929;51.178;4.138;2023-04-07T12:56:46;12.10;74.80
76172;DHT22;64929;51.178;4.138;2023-04-07T12:59:12;12.30;74.20
76172;DHT22;64929;51.178;4.138;2023-04-07T13:01:38;12.10;74.20
76172;DHT22;64929;51.178;4.138;2023-04-07T13:04:03;12.00;74.60
76172;DHT22;64929;51.178;4.138;2023-04-07T13:06:29;12.10;74.20
76172;DHT22;64929;51.178;4.138;2023-04-07T13:08:55;11.90;74.10
76172;DHT22;64929;51.178;4.138;2023-04-07T13:11:21;12.00;74.70
76172;DHT22;64929;51.178;4.138;2023-04-07T13:13:47;12.00;74.80
76172;DHT22;64929;51.178;4.138;2023-04-07T13:16:13;12.00;76.10
76172;DHT22;64929;51.178;4.138;2023-04-07T13:18:38;11.90;76.80
76172;DHT22;64929;51.178;4.138;2023-04-07T13:21:04;12.00;74.90
76172;DHT22;64929;51.178;4.138;2023-04-07T13:23:29;11.80;74.60
76172;DHT22;64929;51.178;4.138;2023-04-07T13:25:55;11.80;74.90
76172;DHT22;64929;51.178;4.138;2023-04-07T13:28:21;11.70;74.70
76172;DHT22;64929;51.178;4.138;2023-04-07T13:30:46;11.70;73.90
76172;DHT22;64929;51.178;4.138;2023-04-07T13:33:12;11.70;73.90
76172;DHT22;64929;51.178;4.138;2023-04-07T13:35:37;11.80;72.60
76172;DHT22;64929;51.178;4.138;2023-04-07T13:38:03;11.90;72.70
76172;DHT22;64929;51.178;4.138;2023-04-07T13:40:29;12.00;73.20
76172;DHT22;64929;51.178;4.138;2023-04-07T13:42:54;12.20;72.50
76172;DHT22;64929;51.178;4.138;2023-04-07T13:45:21;12.30;72.00
76172;DHT22;64929;51.178;4.138;2023-04-07T13:47:47;12.20;71.10
76172;DHT22;64929;51.178;4.138;2023-04-07T13:50:13;12.10;71.60
76172;DHT22;64929;51.178;4.138;2023-04-07T13:52:38;12.00;72.00
76172;DHT22;64929;51.178;4.138;2023-04-07T13:55:04;12.00;72.10
76172;DHT22;64929;51.178;4.138;2023-04-07T13:57:30;11.90;72.80
76172;DHT22;64929;51.178;4.138;2023-04-07T13:59:56;11.80;72.90
76172;DHT22;64929;51.178;4.138;2023-04-07T14:02:21;11.80;73.00
76172;DHT22;64929;51.178;4.138;2023-04-07T14:04:48;11.60;73.80
76172;DHT22;64929;51.178;4.138;2023-04-07T14:07:14;11.50;73.00
76172;DHT22;64929;51.178;4.138;2023-04-07T14:09:39;11.70;71.40
76172;DHT22;64929;51.178;4.138;2023-04-07T14:12:06;11.60;72.30
76172;DHT22;64929;51.178;4.138;2023-04-07T14:14:32;11.60;72.60
76172;DHT22;64929;51.178;4.138;2023-04-07T14:16:58;11.70;72.40
76172;DHT22;64929;51.178;4.138;2023-04-07T14:19:23;11.80;72.40
76172;DHT22;64929;51.178;4.138;2023-04-07T14:21:49;11.90;71.30
76172;DHT22;64929;51.178;4.138;2023-04-07T14:24:15;11.60;72.80
76172;DHT22;64929;51.178;4.138;2023-04-07T14:26:44;11.70;71.60
76172;DHT22;64929;51.178;4.138;2023-04-07T14:29:12;11.50;72.50
76172;DHT22;64929;51.178;4.138;2023-04-07T14:31:38;11.80;71.90
76172;DHT22;64929;51.178;4.138;2023-04-07T14:34:04;11.90;71.70
76172;DHT22;64929;51.178;4.138;2023-04-07T14:36:31;11.90;71.40
76172;DHT22;64929;51.178;4.138;2023-04-07T14:38:57;12.00;71.10
76172;DHT22;64929;51.178;4.138;2023-04-07T14:41:23;12.00;71.00
76172;DHT22;64929;51.178;4.138;2023-04-07T14:43:48;11.70;71.60
76172;DHT22;64929;51.178;4.138;2023-04-07T14:46:20;11.70;72.40
76172;DHT22;64929;51.178;4.138;2023-04-07T14:48:45;11.70;72.50
76172;DHT22;64929;51.178;4.138;2023-04-07T14:51:12;12.00;71.50
76172;DHT22;64929;51.178;4.138;2023-04-07T14:53:38;11.90;71.80
76172;DHT22;64929;51.178;4.138;2023-04-07T14:56:04;11.90;72.10
76172;DHT22;64929;51.178;4.138;2023-04-07T14:58:30;11.80;70.70
76172;DHT22;64929;51.178;4.138;2023-04-07T15:00:56;11.80;71.70
76172;DHT22;64929;51.178;4.138;2023-04-07T15:03:21;11.90;70.70
76172;DHT22;64929;51.178;4.138;2023-04-07T15:05:47;11.90;70.70
76172;DHT22;64929;51.178;4.138;2023-04-07T15:08:12;11.80;70.50
76172;DHT22;64929;51.178;4.138;2023-04-07T15:10:38;11.90;70.80
76172;DHT22;64929;51.178;4.138;2023-04-07T15:13:04;11.90;71.60
76172;DHT22;64929;51.178;4.138;2023-04-07T15:15:29;11.90;71.70
76172;DHT22;64929;51.178;4.138;2023-04-07T15:17:55;12.10;71.00
76172;DHT22;64929;51.178;4.138;2023-04-07T15:20:20;12.10;69.50
76172;DHT22;64929;51.178;4.138;2023-04-07T15:22:46;12.20;68.50
76172;DHT22;64929;51.178;4.138;2023-04-07T15:25:11;12.00;68.50
76172;DHT22;64929;51.178;4.138;2023-04-07T15:27:37;12.00;68.70
76172;DHT22;64929;51.178;4.138;2023-04-07T15:30:02;11.90;69.60
76172;DHT22;64929;51.178;4.138;2023-04-07T15:32:31;12.00;69.20
76172;DHT22;64929;51.178;4.138;2023-04-07T15:34:57;12.20;68.20
76172;DHT22;64929;51.178;4.138;2023-04-07T15:37:23;12.00;69.10
76172;DHT22;64929;51.178;4.138;2023-04-07T15:39:49;11.90;69.90
76172;DHT22;64929;51.178;4.138;2023-04-07T15:42:15;11.80;70.30
76172;DHT22;64929;51.178;4.138;2023-04-07T15:44:40;11.60;71.00
76172;DHT22;64929;51.178;4.138;2023-04-07T15:47:06;11.70;70.90
76172;DHT22;64929;51.178;4.138;2023-04-07T15:49:32;11.80;71.10
76172;DHT22;64929;51.178;4.138;2023-04-07T15:51:58;11.80;71.10
76172;DHT22;64929;51.178;4.138;2023-04-07T15:54:24;12.00;70.30
76172;DHT22;64929;51.178;4.138;2023-04-07T15:56:49;11.90;69.90